Time;durP1;ratioP1;P1;durP2;ratioP2;P2;SDS_P1;SDS_P2;PMS_P1;PMS_P2;Temp;Humidity;BMP_temperature;BMP_pressure;BME280_temperature;BME280_humidity;BME280_pressure;Samples;Min_cycle;Max_cycle;Signal;HPM_P1;HPM_P2
2021/12/16 00:04:17;;;;;;;18.03;9.27;;;1.70;99.90;;;;;;5034924;28;20306;-61
2021/12/16 00:09:10;;;;;;;18.37;9.03;;;1.70;99.90;;;;;;5034787;28;20249;-62
2021/12/16 00:20:23;;;;;;;19.87;9.20;;;1.70;99.90;;;;;;5034454;28;20197;-59
2021/12/16 00:33:15;;;;;;;19.57;9.93;;;1.70;99.90;;;;;;5034712;28;20221;-58
2021/12/16 00:35:44;;;;;;;21.47;10.10;;;1.70;99.90;;;;;;5034426;28;20286;-59
2021/12/16 00:38:10;;;;;;;21.43;10.10;;;1.70;99.90;;;;;;5034100;28;20659;-59
2021/12/16 00:40:40;;;;;;;20.63;10.43;;;1.70;99.90;;;;;;5034338;28;20225;-62
2021/12/16 00:43:18;;;;;;;21.53;10.60;;;1.70;99.90;;;;;;5034420;28;20195;-59
2021/12/16 00:54:13;;;;;;;19.73;9.17;;;1.60;99.90;;;;;;5033896;28;20201;-58
2021/12/16 00:56:43;;;;;;;16.20;8.23;;;1.70;99.90;;;;;;5033251;28;20645;-61
2021/12/16 00:59:11;;;;;;;17.97;8.93;;;1.70;99.90;;;;;;5034005;28;20276;-58
2021/12/16 01:01:54;;;;;;;16.13;7.53;;;1.60;99.90;;;;;;5033628;28;20190;-58
2021/12/16 01:07:35;;;;;;;18.87;7.40;;;1.60;99.90;;;;;;5033394;28;20238;-59
2021/12/16 01:34:55;;;;;;;12.13;4.80;;;1.60;99.90;;;;;;5033250;28;20181;-59
2021/12/16 01:48:41;;;;;;;13.13;6.70;;;1.50;99.90;;;;;;5032927;28;20209;-59
2021/12/16 01:50:56;;;;;;;12.33;6.40;;;1.50;99.90;;;;;;5032758;28;20284;-58
2021/12/16 01:56:18;;;;;;;15.20;6.33;;;1.50;99.90;;;;;;5022091;28;20286;-59
2021/12/16 01:58:45;;;;;;;15.23;7.10;;;1.50;99.90;;;;;;5012998;28;20172;-60
2021/12/16 02:01:20;;;;;;;17.40;6.67;;;1.40;99.90;;;;;;5013095;28;20194;-59
2021/12/16 02:03:51;;;;;;;15.27;6.03;;;1.40;99.90;;;;;;5013151;28;20506;-59
2021/12/16 02:06:59;;;;;;;21.97;8.37;;;1.50;99.90;;;;;;5013202;28;20298;-59
2021/12/16 02:09:20;;;;;;;16.80;7.97;;;1.40;99.90;;;;;;5012237;28;20260;-59
2021/12/16 02:28:31;;;;;;;19.97;8.50;;;1.50;99.90;;;;;;5032126;28;20202;-60
2021/12/16 02:38:48;;;;;;;18.83;8.57;;;1.50;99.90;;;;;;5012202;28;20210;-59
2021/12/16 02:41:15;;;;;;;21.20;8.87;;;1.50;99.90;;;;;;5012666;28;20209;-59
2021/12/16 02:49:02;;;;;;;21.37;7.80;;;1.50;99.90;;;;;;5012055;28;20214;-59
2021/12/16 02:51:28;;;;;;;13.73;6.83;;;1.60;99.90;;;;;;5012087;28;20179;-60
2021/12/16 02:53:58;;;;;;;13.30;7.20;;;1.60;99.90;;;;;;5012005;28;20190;-59
2021/12/16 02:56:25;;;;;;;11.37;6.20;;;1.60;99.90;;;;;;5007685;28;20189;-59
2021/12/16 02:58:54;;;;;;;15.67;6.70;;;1.60;99.90;;;;;;5013482;28;20195;-59
2021/12/16 03:01:29;;;;;;;14.57;6.13;;;1.60;99.90;;;;;;5031625;28;20179;-59
2021/12/16 03:03:59;;;;;;;12.57;6.03;;;1.70;99.90;;;;;;5031659;28;20178;-60
2021/12/16 03:06:29;;;;;;;13.47;6.23;;;1.70;99.90;;;;;;5031674;28;20180;-60
2021/12/16 03:08:54;;;;;;;11.93;5.50;;;1.70;99.90;;;;;;5014255;28;20187;-61
2021/12/16 03:21:38;;;;;;;9.97;5.83;;;1.80;99.90;;;;;;5031398;28;20161;-59
2021/12/16 03:37:40;;;;;;;11.30;5.13;;;1.70;99.90;;;;;;5034995;28;20171;-59
2021/12/16 03:40:03;;;;;;;13.30;5.20;;;1.70;99.90;;;;;;5023974;28;20209;-59
2021/12/16 03:42:34;;;;;;;9.43;5.40;;;1.70;99.90;;;;;;5035184;28;20175;-61
2021/12/16 03:46:25;;;;;;;13.03;5.50;;;1.70;99.90;;;;;;5035267;28;20175;-61
2021/12/16 03:47:58;;;;;;;11.03;5.43;;;1.70;99.90;;;;;;5034458;28;20219;-59
2021/12/16 03:50:24;;;;;;;14.33;5.67;;;1.60;99.90;;;;;;5035171;28;20281;-59
2021/12/16 03:52:51;;;;;;;12.80;6.00;;;1.70;99.90;;;;;;5034468;28;20194;-60
2021/12/16 03:55:19;;;;;;;12.37;5.83;;;1.70;99.90;;;;;;5013398;28;20194;-60
2021/12/16 03:57:45;;;;;;;11.40;6.10;;;1.60;99.90;;;;;;5014977;28;20230;-61
2021/12/16 04:00:19;;;;;;;11.27;6.00;;;1.60;99.90;;;;;;5014872;28;20624;-60
2021/12/16 04:02:46;;;;;;;12.60;6.13;;;1.60;99.90;;;;;;5014694;28;20167;-60
2021/12/16 04:05:13;;;;;;;13.27;6.13;;;1.60;99.90;;;;;;5015280;28;20647;-59
2021/12/16 04:07:41;;;;;;;12.80;6.47;;;1.60;99.90;;;;;;5015097;28;20214;-59
2021/12/16 04:10:13;;;;;;;15.03;6.97;;;1.60;99.90;;;;;;5014817;28;20184;-59
2021/12/16 04:12:39;;;;;;;13.67;6.30;;;1.60;99.90;;;;;;5014761;28;20172;-58
2021/12/16 04:15:07;;;;;;;13.93;6.83;;;1.60;99.90;;;;;;5014385;28;20197;-59
2021/12/16 04:17:35;;;;;;;15.60;7.47;;;1.60;99.90;;;;;;5015020;28;20658;-59
2021/12/16 04:20:05;;;;;;;15.27;6.67;;;1.60;99.90;;;;;;5014189;28;20180;-61
2021/12/16 04:22:36;;;;;;;15.63;6.40;;;1.60;99.90;;;;;;5014824;28;20253;-62
2021/12/16 04:25:07;;;;;;;15.70;7.40;;;1.50;99.90;;;;;;5016306;28;20164;-59
2021/12/16 04:27:35;;;;;;;15.07;7.23;;;1.50;99.90;;;;;;5034728;28;20256;-59
2021/12/16 04:30:01;;;;;;;14.10;7.23;;;1.50;99.90;;;;;;5025143;28;20194;-62
2021/12/16 04:32:27;;;;;;;15.73;7.33;;;1.50;99.90;;;;;;5014528;28;20286;-59
2021/12/16 04:34:53;;;;;;;13.27;7.20;;;1.50;99.90;;;;;;5013949;28;20703;-59
2021/12/16 04:37:19;;;;;;;15.07;8.67;;;1.50;99.90;;;;;;5013612;28;20295;-58
2021/12/16 04:39:45;;;;;;;21.10;8.43;;;1.50;99.90;;;;;;5014507;28;20178;-68
2021/12/16 04:42:13;;;;;;;17.57;8.07;;;1.50;99.90;;;;;;5014453;28;20216;-60
2021/12/16 04:44:41;;;;;;;19.40;8.67;;;1.50;99.90;;;;;;5014250;28;20623;-58
2021/12/16 04:47:07;;;;;;;15.53;8.20;;;1.50;99.90;;;;;;5013963;28;20407;-61
2021/12/16 04:49:34;;;;;;;17.47;8.77;;;1.50;99.90;;;;;;4996926;28;20631;-60
2021/12/16 04:52:03;;;;;;;23.30;9.80;;;1.50;99.90;;;;;;4995885;28;20191;-59
2021/12/16 04:54:29;;;;;;;18.53;9.97;;;1.50;99.90;;;;;;5013655;28;20588;-59
2021/12/16 04:56:57;;;;;;;21.23;9.93;;;1.50;99.90;;;;;;5031110;28;20202;-62
2021/12/16 04:59:24;;;;;;;18.37;8.13;;;1.50;99.90;;;;;;5033254;28;20304;-59
2021/12/16 05:01:54;;;;;;;19.73;9.23;;;1.50;99.90;;;;;;5033074;28;20174;-63
2021/12/16 05:04:20;;;;;;;19.57;9.47;;;1.50;99.90;;;;;;5033384;28;20227;-60
2021/12/16 05:06:46;;;;;;;16.93;9.17;;;1.50;99.90;;;;;;5033579;28;20648;-68
2021/12/16 05:09:24;;;;;;;19.60;9.47;;;1.50;99.90;;;;;;5033604;28;20277;-59
2021/12/16 05:11:50;;;;;;;22.10;10.80;;;1.50;99.90;;;;;;5033206;28;20175;-62
2021/12/16 05:14:19;;;;;;;17.27;9.20;;;1.50;99.90;;;;;;5033127;28;20231;-60
2021/12/16 05:16:45;;;;;;;20.30;9.70;;;1.50;99.90;;;;;;5033107;28;20175;-60
2021/12/16 05:19:11;;;;;;;16.70;8.00;;;1.40;99.90;;;;;;5033047;28;20233;-58
2021/12/16 05:24:25;;;;;;;24.30;11.70;;;1.50;99.90;;;;;;5032950;28;20214;-62
2021/12/16 05:26:56;;;;;;;25.43;12.50;;;1.50;99.90;;;;;;4997971;28;20202;-60
2021/12/16 05:29:23;;;;;;;20.03;11.10;;;1.50;99.90;;;;;;5017085;28;20167;-60
2021/12/16 05:31:49;;;;;;;27.33;13.23;;;1.60;99.90;;;;;;5031965;28;20658;-61
2021/12/16 05:34:15;;;;;;;21.73;11.73;;;1.60;99.90;;;;;;5032259;28;20270;-60
2021/12/16 05:36:42;;;;;;;27.50;11.67;;;1.60;99.90;;;;;;5014356;28;20176;-60
2021/12/16 05:39:10;;;;;;;28.80;14.07;;;1.60;99.90;;;;;;5032154;28;20705;-61
2021/12/16 05:41:35;;;;;;;25.70;12.20;;;1.50;99.90;;;;;;5032662;28;20601;-59
2021/12/16 05:44:01;;;;;;;26.00;12.33;;;1.50;99.90;;;;;;5032269;28;20213;-59
2021/12/16 05:46:28;;;;;;;29.30;12.37;;;1.50;99.90;;;;;;5032169;28;20179;-60
2021/12/16 05:48:56;;;;;;;24.27;13.23;;;1.50;99.90;;;;;;5031773;28;20194;-59
2021/12/16 05:51:27;;;;;;;28.67;14.03;;;1.50;99.90;;;;;;5031363;28;20211;-61
2021/12/16 05:53:53;;;;;;;28.10;12.80;;;1.50;99.90;;;;;;5032052;28;20256;-59
2021/12/16 05:56:19;;;;;;;29.50;13.10;;;1.50;99.90;;;;;;5019307;28;20646;-61
2021/12/16 05:58:46;;;;;;;30.40;14.37;;;1.50;99.90;;;;;;4994550;28;20539;-61
2021/12/16 06:01:21;;;;;;;23.80;13.10;;;1.50;99.90;;;;;;5011862;28;20498;-61
2021/12/16 06:03:47;;;;;;;27.93;13.83;;;1.50;99.90;;;;;;5012130;28;20167;-60
2021/12/16 06:06:15;;;;;;;31.13;14.93;;;1.50;99.90;;;;;;5011025;28;20195;-60
2021/12/16 06:08:42;;;;;;;28.97;14.00;;;1.50;99.90;;;;;;5011676;28;20207;-61
2021/12/16 06:11:22;;;;;;;33.53;14.60;;;1.50;99.90;;;;;;5012105;28;20190;-61
2021/12/16 06:14:19;;;;;;;27.33;12.70;;;1.50;99.90;;;;;;5011729;28;20330;-61
2021/12/16 06:22:37;;;;;;;28.33;14.27;;;1.60;99.90;;;;;;5011427;28;20335;-60
2021/12/16 06:27:53;;;;;;;34.37;14.43;;;1.60;99.90;;;;;;5031340;28;20193;-71
2021/12/16 06:30:23;;;;;;;34.07;16.63;;;1.70;99.90;;;;;;5020260;28;20669;-59
2021/12/16 06:32:49;;;;;;;31.63;14.37;;;1.70;99.90;;;;;;4994677;28;20176;-60
2021/12/16 06:35:15;;;;;;;31.27;15.67;;;1.70;99.90;;;;;;5012453;28;20270;-61
2021/12/16 06:37:42;;;;;;;32.33;16.10;;;1.70;99.90;;;;;;5023051;28;20626;-61
2021/12/16 06:40:10;;;;;;;39.70;16.07;;;1.80;99.90;;;;;;5012073;28;20270;-59
2021/12/16 06:42:39;;;;;;;32.33;15.13;;;1.80;99.90;;;;;;5009054;28;20175;-63
2021/12/16 06:45:11;;;;;;;31.23;14.43;;;1.80;99.90;;;;;;5009739;28;20218;-59
2021/12/16 06:47:48;;;;;;;31.23;16.57;;;1.90;99.90;;;;;;5009499;28;20290;-61
2021/12/16 06:50:26;;;;;;;31.17;16.27;;;1.90;99.90;;;;;;5009351;28;20523;-62
2021/12/16 06:52:56;;;;;;;38.53;16.60;;;1.90;99.90;;;;;;5010678;28;20187;-62
2021/12/16 06:57:56;;;;;;;37.60;16.73;;;2.10;99.90;;;;;;5029679;28;20235;-61
2021/12/16 07:00:35;;;;;;;36.60;17.63;;;2.10;99.90;;;;;;5028944;28;20297;-61
2021/12/16 07:03:05;;;;;;;42.47;19.33;;;2.20;99.90;;;;;;5010970;28;20171;-64
2021/12/16 07:05:40;;;;;;;47.00;20.90;;;2.30;99.90;;;;;;5011349;28;20210;-61
2021/12/16 07:08:10;;;;;;;40.17;20.10;;;2.40;99.90;;;;;;5028896;28;20206;-62
2021/12/16 07:10:36;;;;;;;38.33;20.43;;;2.50;99.90;;;;;;5028904;28;20232;-57
2021/12/16 07:13:07;;;;;;;40.80;18.33;;;2.50;99.90;;;;;;5010604;28;20235;-66
2021/12/16 07:15:36;;;;;;;41.17;18.97;;;2.50;99.90;;;;;;5029385;28;20213;-63
2021/12/16 07:18:02;;;;;;;37.47;15.87;;;2.50;99.90;;;;;;5028831;28;20261;-61
2021/12/16 07:20:30;;;;;;;33.20;14.77;;;2.50;99.90;;;;;;5010613;28;20194;-62
2021/12/16 07:22:58;;;;;;;36.77;18.17;;;2.60;99.90;;;;;;5028311;28;20514;-60
2021/12/16 07:25:24;;;;;;;32.03;16.73;;;2.70;99.90;;;;;;4995089;28;20188;-64
2021/12/16 07:27:51;;;;;;;33.13;15.93;;;2.80;99.90;;;;;;5010791;28;20206;-56
2021/12/16 07:30:18;;;;;;;30.57;14.57;;;2.80;99.90;;;;;;5017581;28;20187;-61
2021/12/16 07:32:44;;;;;;;31.13;14.20;;;2.90;99.90;;;;;;4991586;28;20210;-61
2021/12/16 07:35:14;;;;;;;30.63;14.00;;;3.00;99.90;;;;;;5009416;28;20177;-65
2021/12/16 07:37:40;;;;;;;30.77;13.37;;;3.20;99.90;;;;;;5007265;28;20186;-61
2021/12/16 07:40:09;;;;;;;34.30;15.00;;;3.30;99.90;;;;;;4974942;28;20277;-61
2021/12/16 07:42:59;;;;;;;32.33;13.80;;;3.30;99.90;;;;;;5011220;28;20181;-61
2021/12/16 07:45:26;;;;;;;36.40;13.60;;;3.30;99.90;;;;;;5011085;28;20239;-60
2021/12/16 07:47:52;;;;;;;21.67;11.83;;;3.50;99.90;;;;;;5010879;28;20719;-60
2021/12/16 07:50:19;;;;;;;25.67;13.50;;;3.50;99.90;;;;;;5010326;28;20188;-61
2021/12/16 07:52:45;;;;;;;28.63;13.83;;;3.40;99.90;;;;;;5010991;28;20185;-62
2021/12/16 07:55:12;;;;;;;23.67;11.53;;;3.40;99.90;;;;;;5010390;28;20700;-60
2021/12/16 07:57:38;;;;;;;23.90;12.77;;;3.40;99.90;;;;;;5010705;28;20189;-60
2021/12/16 08:00:08;;;;;;;24.70;12.57;;;3.40;99.90;;;;;;5009546;28;20239;-61
2021/12/16 08:02:33;;;;;;;28.27;13.23;;;3.50;99.90;;;;;;5009074;28;20189;-64
2021/12/16 08:05:02;;;;;;;25.50;14.07;;;3.60;99.90;;;;;;5007395;28;20177;-62
2021/12/16 08:07:27;;;;;;;29.23;12.43;;;3.60;99.90;;;;;;4991843;28;20204;-62
2021/12/16 08:09:54;;;;;;;27.80;12.73;;;3.60;99.90;;;;;;5009373;28;20185;-63
2021/12/16 08:12:20;;;;;;;25.00;12.90;;;3.70;99.90;;;;;;5009200;28;20177;-63
2021/12/16 08:14:46;;;;;;;27.80;13.87;;;3.70;99.90;;;;;;5012555;28;20335;-64
2021/12/16 08:17:15;;;;;;;29.53;14.50;;;3.70;99.90;;;;;;5012248;28;20221;-60
2021/12/16 08:19:41;;;;;;;32.47;16.40;;;3.90;99.90;;;;;;5012395;28;20185;-61
2021/12/16 08:22:07;;;;;;;29.43;15.27;;;4.00;99.90;;;;;;5012834;28;20193;-61
2021/12/16 08:24:34;;;;;;;33.50;17.80;;;4.20;99.90;;;;;;5012253;28;20187;-61
2021/12/16 08:27:00;;;;;;;33.27;15.67;;;4.30;99.90;;;;;;4994585;28;20297;-61
2021/12/16 08:29:26;;;;;;;30.37;14.57;;;4.40;99.90;;;;;;5016847;28;20626;-62
2021/12/16 08:31:53;;;;;;;30.73;15.07;;;4.50;99.90;;;;;;5033535;28;20210;-60
2021/12/16 08:34:19;;;;;;;26.97;14.83;;;4.60;99.90;;;;;;5033138;28;20179;-61
2021/12/16 08:36:46;;;;;;;29.53;14.97;;;4.70;99.90;;;;;;5001012;28;20187;-61
2021/12/16 08:39:12;;;;;;;29.13;15.33;;;4.90;99.90;;;;;;5013536;28;20259;-60
2021/12/16 08:41:41;;;;;;;25.87;12.73;;;5.00;99.90;;;;;;5013565;28;20690;-63
2021/12/16 08:44:08;;;;;;;28.57;13.33;;;5.10;99.90;;;;;;5013569;28;20199;-60
2021/12/16 08:46:39;;;;;;;26.13;12.87;;;4.90;99.90;;;;;;5014180;28;20183;-61
2021/12/16 08:49:06;;;;;;;29.87;13.80;;;4.80;99.90;;;;;;5013848;28;20589;-67
2021/12/16 08:51:36;;;;;;;29.53;14.77;;;4.80;99.90;;;;;;5013585;28;20233;-61
2021/12/16 08:54:02;;;;;;;28.63;13.73;;;4.70;99.90;;;;;;5013313;28;20187;-59
2021/12/16 08:56:30;;;;;;;29.93;13.23;;;4.70;99.90;;;;;;5013987;28;20702;-62
2021/12/16 08:58:56;;;;;;;28.60;13.50;;;4.70;99.90;;;;;;4996065;28;20656;-63
2021/12/16 09:01:26;;;;;;;25.47;12.47;;;4.50;99.90;;;;;;5014050;28;20288;-61
2021/12/16 09:03:55;;;;;;;26.37;14.33;;;4.50;99.90;;;;;;5013656;28;20183;-61
2021/12/16 09:06:21;;;;;;;26.00;12.53;;;4.50;99.90;;;;;;4990641;28;20684;-61
2021/12/16 09:08:47;;;;;;;24.40;12.53;;;4.60;99.90;;;;;;5033287;28;20207;-61
2021/12/16 09:11:19;;;;;;;25.03;13.10;;;4.60;99.90;;;;;;5033119;28;20241;-61
2021/12/16 09:13:46;;;;;;;24.20;12.47;;;4.70;99.90;;;;;;5032996;28;20239;-61
2021/12/16 09:16:15;;;;;;;24.17;12.27;;;4.60;99.90;;;;;;5015255;28;20554;-61
2021/12/16 09:18:42;;;;;;;27.20;13.20;;;4.50;99.90;;;;;;5032970;28;20174;-61
2021/12/16 09:21:12;;;;;;;25.50;12.93;;;4.60;99.90;;;;;;5032407;28;20175;-61
2021/12/16 09:23:40;;;;;;;25.97;12.67;;;4.60;99.90;;;;;;5032861;28;20289;-61
2021/12/16 09:26:07;;;;;;;24.30;12.87;;;4.60;99.90;;;;;;5033060;28;20232;-60
2021/12/16 09:28:33;;;;;;;26.00;12.33;;;4.70;99.90;;;;;;5033311;28;20230;-61
2021/12/16 09:30:59;;;;;;;26.07;12.87;;;4.70;99.90;;;;;;5015808;28;20186;-74
2021/12/16 09:33:26;;;;;;;26.50;12.07;;;4.60;99.90;;;;;;5013040;28;20265;-61
2021/12/16 09:35:56;;;;;;;28.53;12.60;;;4.50;99.90;;;;;;5019774;28;20210;-63
2021/12/16 09:38:22;;;;;;;16.97;8.63;;;4.50;99.90;;;;;;5032554;28;20177;-62
2021/12/16 09:40:53;;;;;;;21.20;10.73;;;4.50;99.90;;;;;;5032563;28;20200;-61
2021/12/16 09:43:26;;;;;;;26.30;11.97;;;4.50;99.90;;;;;;5032447;28;20168;-62
2021/12/16 09:45:55;;;;;;;23.83;12.30;;;4.60;99.90;;;;;;5032725;28;20205;-66
2021/12/16 09:48:21;;;;;;;22.93;11.37;;;4.60;99.90;;;;;;5032033;28;20634;-61
2021/12/16 09:50:47;;;;;;;17.83;8.17;;;4.50;99.90;;;;;;5032352;28;20199;-65
2021/12/16 09:53:13;;;;;;;18.10;10.27;;;4.40;99.90;;;;;;5031939;28;20562;-63
2021/12/16 09:55:39;;;;;;;22.30;12.03;;;4.40;99.90;;;;;;5032250;28;20182;-60
2021/12/16 09:58:06;;;;;;;22.70;11.40;;;4.40;99.90;;;;;;5014365;28;20331;-60
2021/12/16 10:00:32;;;;;;;22.07;9.63;;;4.40;99.90;;;;;;5032460;28;20186;-62
2021/12/16 10:03:01;;;;;;;22.17;10.40;;;4.50;99.90;;;;;;5032286;28;20205;-63
2021/12/16 10:05:28;;;;;;;18.47;10.10;;;4.50;99.90;;;;;;5031546;28;20228;-61
2021/12/16 10:07:54;;;;;;;18.43;9.10;;;4.50;99.90;;;;;;5013990;28;20234;-61
2021/12/16 10:10:25;;;;;;;23.70;9.53;;;4.50;99.90;;;;;;5031964;28;20263;-60
2021/12/16 10:12:55;;;;;;;20.93;10.27;;;4.40;99.90;;;;;;5031834;28;20228;-60
2021/12/16 10:18:13;;;;;;;22.00;11.17;;;4.50;99.90;;;;;;4990790;28;20258;-63
2021/12/16 10:21:00;;;;;;;24.40;11.77;;;4.50;99.90;;;;;;5031778;28;20225;-62
2021/12/16 10:23:35;;;;;;;20.83;11.80;;;4.60;99.90;;;;;;5013166;28;20282;-61
2021/12/16 10:26:06;;;;;;;25.43;11.87;;;4.60;99.90;;;;;;5031847;28;20163;-60
2021/12/16 10:28:36;;;;;;;27.43;11.90;;;4.50;99.90;;;;;;5013891;28;20686;-61
2021/12/16 10:31:19;;;;;;;25.13;11.90;;;4.60;99.90;;;;;;5014520;28;20207;-62
2021/12/16 10:33:52;;;;;;;24.00;11.40;;;4.60;99.90;;;;;;5011891;28;20222;-61
2021/12/16 10:36:20;;;;;;;24.13;12.03;;;4.70;99.90;;;;;;5021623;28;20582;-60
2021/12/16 10:38:55;;;;;;;28.57;11.73;;;4.60;99.90;;;;;;5031077;28;20191;-59
2021/12/16 10:41:26;;;;;;;22.43;11.50;;;4.60;99.90;;;;;;5030462;28;20466;-62
2021/12/16 10:44:00;;;;;;;26.57;11.70;;;4.50;99.90;;;;;;5031634;28;20261;-63
2021/12/16 10:46:29;;;;;;;25.87;10.97;;;4.50;99.90;;;;;;5031674;28;20174;-62
2021/12/16 10:49:08;;;;;;;23.43;11.50;;;4.60;99.90;;;;;;5031148;28;20213;-62
2021/12/16 10:51:45;;;;;;;23.07;10.53;;;4.60;99.90;;;;;;5031283;28;20177;-61
2021/12/16 10:54:19;;;;;;;26.30;12.77;;;4.50;99.90;;;;;;5012617;28;20544;-63
2021/12/16 10:56:53;;;;;;;22.63;11.60;;;4.50;99.90;;;;;;5030737;28;20184;-63
2021/12/16 10:59:33;;;;;;;22.70;12.10;;;4.50;99.90;;;;;;5030366;28;20180;-65
2021/12/16 11:02:06;;;;;;;24.87;12.57;;;4.50;99.90;;;;;;5031127;28;20617;-61
2021/12/16 11:04:56;;;;;;;26.73;12.40;;;4.50;99.90;;;;;;5030209;28;20269;-62
2021/12/16 11:07:37;;;;;;;20.30;9.07;;;4.50;99.90;;;;;;5030203;28;20212;-60
2021/12/16 11:10:18;;;;;;;25.87;12.40;;;4.40;99.90;;;;;;5030759;28;20456;-71
2021/12/16 11:12:51;;;;;;;23.00;10.37;;;4.50;99.90;;;;;;5030110;28;20238;-61
2021/12/16 11:15:19;;;;;;;20.53;10.67;;;4.70;99.90;;;;;;5011999;28;20183;-62
2021/12/16 11:17:56;;;;;;;26.67;13.57;;;4.80;99.90;;;;;;5030529;28;20571;-60
2021/12/16 11:20:42;;;;;;;28.67;14.33;;;4.80;99.90;;;;;;5029927;28;20179;-61
2021/12/16 11:23:12;;;;;;;31.13;13.77;;;4.80;99.90;;;;;;5030574;28;20268;-60
2021/12/16 11:25:48;;;;;;;27.63;12.70;;;4.80;99.90;;;;;;5030577;28;20290;-60
2021/12/16 11:28:31;;;;;;;25.67;12.93;;;4.60;99.90;;;;;;5030573;28;20367;-61
2021/12/16 11:31:07;;;;;;;28.13;13.60;;;4.60;99.90;;;;;;5013997;28;20180;-61
2021/12/16 11:33:50;;;;;;;28.23;13.47;;;4.70;99.90;;;;;;5010228;28;20550;-61
2021/12/16 11:36:17;;;;;;;29.63;14.47;;;4.80;99.90;;;;;;5021288;28;20182;-60
2021/12/16 11:38:54;;;;;;;27.27;13.90;;;4.80;99.90;;;;;;5030574;28;20183;-61
2021/12/16 11:41:44;;;;;;;30.63;16.20;;;4.80;99.90;;;;;;5030567;28;20171;-60
2021/12/16 11:44:40;;;;;;;33.23;15.43;;;4.80;99.90;;;;;;5030147;28;20241;-61
2021/12/16 11:47:09;;;;;;;32.00;14.33;;;4.70;99.90;;;;;;5029231;28;20365;-61
2021/12/16 11:49:41;;;;;;;31.43;13.83;;;4.80;99.90;;;;;;5016289;28;20190;-61
2021/12/16 11:52:14;;;;;;;28.37;13.37;;;4.80;99.90;;;;;;5033998;28;20200;-63
2021/12/16 11:55:02;;;;;;;26.07;10.17;;;4.80;99.90;;;;;;5034976;28;20193;-60
2021/12/16 11:57:32;;;;;;;22.87;12.10;;;4.70;99.90;;;;;;5033544;28;20185;-61
2021/12/16 12:00:08;;;;;;;26.17;12.27;;;4.70;99.90;;;;;;5034120;28;20634;-62
2021/12/16 12:02:37;;;;;;;28.37;14.07;;;4.70;99.90;;;;;;5034798;28;20177;-61
2021/12/16 12:05:24;;;;;;;29.03;13.17;;;4.70;99.90;;;;;;5032976;28;20182;-66
2021/12/16 12:07:55;;;;;;;29.17;14.17;;;4.60;99.90;;;;;;5014738;28;20264;-59
2021/12/16 12:10:38;;;;;;;30.57;14.43;;;4.60;99.90;;;;;;5013723;28;20199;-60
2021/12/16 12:13:07;;;;;;;26.50;12.73;;;4.60;99.90;;;;;;5013025;28;20266;-65
2021/12/16 12:15:54;;;;;;;30.90;13.77;;;4.60;99.90;;;;;;4996461;28;20190;-61
2021/12/16 12:18:36;;;;;;;29.00;13.17;;;4.50;99.90;;;;;;5013002;28;20554;-60
2021/12/16 12:21:29;;;;;;;31.50;14.37;;;4.50;99.90;;;;;;5014250;28;20194;-60
2021/12/16 12:24:08;;;;;;;35.77;14.83;;;4.60;99.90;;;;;;5014030;28;20184;-60
2021/12/16 12:26:46;;;;;;;33.13;15.17;;;4.60;99.90;;;;;;4996452;28;20618;-61
2021/12/16 12:29:20;;;;;;;35.23;16.40;;;4.60;99.90;;;;;;5016066;28;20164;-61
2021/12/16 12:31:57;;;;;;;28.33;12.97;;;4.60;99.90;;;;;;5034257;28;20173;-58
2021/12/16 12:34:23;;;;;;;39.80;17.33;;;4.60;99.90;;;;;;5033277;28;20188;-57
2021/12/16 12:36:52;;;;;;;30.03;14.57;;;4.50;99.90;;;;;;5033750;28;20793;-57
2021/12/16 12:39:21;;;;;;;40.20;16.33;;;4.50;99.90;;;;;;5015424;28;20269;-58
2021/12/16 12:41:47;;;;;;;40.03;17.17;;;4.50;99.90;;;;;;5015629;28;20239;-53
2021/12/16 12:44:14;;;;;;;39.37;16.47;;;4.40;99.90;;;;;;5033193;28;20256;-57
2021/12/16 12:46:42;;;;;;;34.77;16.17;;;4.40;99.90;;;;;;5034025;28;20189;-59
2021/12/16 12:49:14;;;;;;;42.17;17.87;;;4.40;99.90;;;;;;5033428;28;20233;-56
2021/12/16 12:51:43;;;;;;;41.37;18.03;;;4.40;99.90;;;;;;5034045;28;20181;-58
2021/12/16 12:54:28;;;;;;;36.53;17.83;;;4.30;99.90;;;;;;5033407;28;20198;-57
2021/12/16 12:56:58;;;;;;;32.80;16.10;;;4.30;99.90;;;;;;5033206;28;20166;-57
2021/12/16 12:59:38;;;;;;;41.53;19.93;;;4.30;99.90;;;;;;5032365;28;20634;-54
2021/12/16 13:02:25;;;;;;;52.77;24.47;;;4.30;99.90;;;;;;5015626;28;20301;-58
2021/12/16 13:04:57;;;;;;;45.57;23.33;;;4.30;99.90;;;;;;5033784;28;20227;-55
2021/12/16 13:07:43;;;;;;;42.40;20.83;;;4.30;99.90;;;;;;5013032;28;20462;-56
2021/12/16 13:10:21;;;;;;;41.63;20.37;;;4.20;99.90;;;;;;5013128;28;20197;-54
2021/12/16 13:13:17;;;;;;;47.97;20.27;;;4.20;99.90;;;;;;5012951;28;20224;-54
2021/12/16 13:15:54;;;;;;;39.30;18.73;;;4.20;99.90;;;;;;5013535;28;20594;-57
2021/12/16 13:27:02;;;;;;;43.03;19.83;;;4.30;99.90;;;;;;5013153;28;20192;-52
2021/12/16 13:29:39;;;;;;;40.97;17.30;;;4.30;99.90;;;;;;5017368;28;20578;-56
2021/12/16 13:32:28;;;;;;;38.53;17.17;;;4.30;99.90;;;;;;5014614;28;20183;-55
2021/12/16 13:37:45;;;;;;;39.73;18.17;;;4.30;99.90;;;;;;5012666;28;20177;-55
2021/12/16 13:40:14;;;;;;;37.50;16.07;;;4.30;99.90;;;;;;5012631;28;20181;-59
2021/12/16 13:42:53;;;;;;;34.90;15.93;;;4.30;99.90;;;;;;5012670;28;20177;-54
2021/12/16 13:45:27;;;;;;;34.07;16.10;;;4.30;99.90;;;;;;5012424;28;20571;-56
2021/12/16 13:48:09;;;;;;;44.67;19.27;;;4.30;99.90;;;;;;5012112;28;20677;-55
2021/12/16 14:07:57;;;;;;;41.90;19.47;;;4.30;99.90;;;;;;5012308;28;20209;-57
2021/12/16 14:10:52;;;;;;;39.20;17.97;;;4.20;99.90;;;;;;5011474;28;20690;-59
2021/12/16 14:24:54;;;;;;;46.40;18.37;;;4.30;99.90;;;;;;5012243;28;20281;-56
2021/12/16 14:41:36;;;;;;;46.20;21.40;;;4.30;99.90;;;;;;5011249;28;20578;-57
2021/12/16 14:49:52;;;;;;;47.10;19.77;;;4.30;99.90;;;;;;4982958;28;20200;-54
2021/12/16 14:52:24;;;;;;;43.33;19.80;;;4.40;99.90;;;;;;5011673;28;20177;-57
2021/12/16 14:54:54;;;;;;;36.07;18.30;;;4.40;99.90;;;;;;5011367;28;20183;-55
2021/12/16 14:57:23;;;;;;;46.17;20.60;;;4.40;99.90;;;;;;5011602;28;20524;-54
2021/12/16 14:59:49;;;;;;;45.47;19.80;;;4.40;99.90;;;;;;5011173;28;20205;-55
2021/12/16 15:02:16;;;;;;;36.50;16.63;;;4.40;99.90;;;;;;5008317;28;20285;-56
2021/12/16 15:04:42;;;;;;;36.17;16.47;;;4.40;99.90;;;;;;4991666;28;20190;-55
2021/12/16 15:07:11;;;;;;;41.73;18.63;;;4.40;99.90;;;;;;5026173;28;20212;-58
2021/12/16 15:09:39;;;;;;;38.47;17.50;;;4.40;99.90;;;;;;5028832;28;20199;-58
2021/12/16 15:39:10;;;;;;;38.23;17.87;;;4.50;99.90;;;;;;5032790;28;20210;-55
2021/12/16 15:43:55;;;;;;;37.33;18.93;;;4.40;99.90;;;;;;5018033;28;20208;-59
2021/12/16 15:46:23;;;;;;;36.13;16.50;;;4.50;99.90;;;;;;5032484;28;20630;-68
2021/12/16 15:48:51;;;;;;;38.17;18.10;;;4.50;99.90;;;;;;5034377;28;20214;-56
2021/12/16 15:51:18;;;;;;;46.57;19.37;;;4.50;99.90;;;;;;5034698;28;20194;-58
2021/12/16 15:53:52;;;;;;;39.53;18.90;;;4.40;99.90;;;;;;5034928;28;20187;-56
2021/12/16 15:56:26;;;;;;;39.83;20.77;;;4.40;99.90;;;;;;5034715;28;20177;-54
2021/12/16 15:58:56;;;;;;;40.00;19.93;;;4.40;99.90;;;;;;5034491;28;20172;-53
2021/12/16 16:01:33;;;;;;;41.40;19.80;;;4.40;99.90;;;;;;5034310;28;20174;-58
2021/12/16 16:04:01;;;;;;;41.37;18.77;;;4.40;99.90;;;;;;5034111;28;20202;-53
2021/12/16 16:06:28;;;;;;;44.80;19.30;;;4.40;99.90;;;;;;5022634;28;20252;-56
2021/12/16 16:08:57;;;;;;;37.57;18.60;;;4.40;99.90;;;;;;4995780;28;20659;-55
2021/12/16 16:11:27;;;;;;;39.67;18.63;;;4.40;99.90;;;;;;5013589;28;20204;-54
2021/12/16 16:14:00;;;;;;;42.67;19.97;;;4.40;99.90;;;;;;5013653;28;20239;-57
2021/12/16 16:16:33;;;;;;;41.43;20.97;;;4.40;99.90;;;;;;5013507;28;20186;-56
2021/12/16 16:19:03;;;;;;;35.13;16.07;;;4.40;99.90;;;;;;5014322;28;20182;-54
2021/12/16 16:21:33;;;;;;;48.37;20.53;;;4.40;99.90;;;;;;5014136;28;20205;-56
2021/12/16 16:24:04;;;;;;;46.40;19.93;;;4.40;99.90;;;;;;5014345;28;20592;-52
2021/12/16 16:26:31;;;;;;;46.23;20.30;;;4.40;99.90;;;;;;5014640;28;20181;-56
2021/12/16 16:29:02;;;;;;;42.60;19.90;;;4.40;99.90;;;;;;5014531;28;20252;-58
2021/12/16 16:31:31;;;;;;;43.27;20.93;;;4.40;99.90;;;;;;5013883;28;20196;-60
2021/12/16 16:33:58;;;;;;;41.07;19.97;;;4.40;99.90;;;;;;5013427;28;20267;-55
2021/12/16 16:36:26;;;;;;;40.30;18.53;;;4.40;99.90;;;;;;5025792;28;20242;-58
2021/12/16 16:39:09;;;;;;;43.07;20.07;;;4.40;99.90;;;;;;5034148;28;20633;-57
2021/12/16 16:41:47;;;;;;;47.53;19.47;;;4.40;99.90;;;;;;5034423;28;20168;-52
2021/12/16 16:44:16;;;;;;;45.20;19.60;;;4.50;99.90;;;;;;5033625;28;20180;-50
2021/12/16 16:46:55;;;;;;;39.87;19.03;;;4.40;99.90;;;;;;5033660;28;20186;-55
2021/12/16 16:49:28;;;;;;;38.73;19.93;;;4.40;99.90;;;;;;5033577;28;20189;-57
2021/12/16 16:51:57;;;;;;;39.80;18.27;;;4.40;99.90;;;;;;5033969;28;20223;-55
2021/12/16 16:54:30;;;;;;;44.57;20.87;;;4.40;99.90;;;;;;5033529;28;20229;-57